Terminal Aerodrome Forecast
Issued by NWS

Home | Current Version | Previous Version | Text Only | Print | Product List | Glossary On
Versions: 1 2 3 4 5 6 7 8 9 10 11 12 13
478
FTAK31 PAJN 190532
TAFAYA
TAF
PAYA 190532Z 1906/2006 VRB03KT P6SM SCT015
      TEMPO 1906/1909 BKN015
     FM191200 09005KT P6SM BKN070
      AMD NOT SKED=

USA.gov is the U.S. government's official web portal to all federal, state and local government web resources and services.